Time;durP1;ratioP1;P1;durP2;ratioP2;P2;SDS_P1;SDS_P2;PMS_P1;PMS_P2;Temp;Humidity;BMP_temperature;BMP_pressure;BME280_temperature;BME280_humidity;BME280_pressure;Samples;Min_cycle;Max_cycle;Signal;HPM_P1;HPM_P2
2024/01/22 00:01:23;;;;;;;7.85;5.88;;;4.20;64.60;;;;;;5079041;28;20027;-75
2024/01/22 00:03:49;;;;;;;8.15;6.07;;;4.30;64.70;;;;;;5096918;28;20034;-75
2024/01/22 00:06:14;;;;;;;7.65;5.82;;;4.30;64.60;;;;;;5096907;28;20016;-75
2024/01/22 00:08:40;;;;;;;7.30;5.50;;;4.30;64.60;;;;;;5078684;28;20022;-75
2024/01/22 00:11:05;;;;;;;9.45;5.97;;;4.30;64.60;;;;;;5097332;28;20047;-75
2024/01/22 00:13:31;;;;;;;7.63;5.68;;;4.30;64.50;;;;;;5079288;28;20052;-76
2024/01/22 00:15:57;;;;;;;8.35;5.88;;;4.30;64.50;;;;;;5097572;28;20031;-75
2024/01/22 00:18:23;;;;;;;8.35;6.28;;;4.30;64.50;;;;;;5096767;28;20035;-75
2024/01/22 00:20:48;;;;;;;8.40;5.97;;;4.30;64.50;;;;;;5061349;28;20023;-73
2024/01/22 00:23:14;;;;;;;8.18;6.13;;;4.30;64.50;;;;;;5078645;28;20043;-75
2024/01/22 00:25:40;;;;;;;8.07;6.18;;;4.30;64.40;;;;;;5078607;28;20016;-75
2024/01/22 00:28:06;;;;;;;8.77;5.97;;;4.30;64.40;;;;;;5096739;28;20099;-75
2024/01/22 00:30:31;;;;;;;8.10;5.68;;;4.30;64.40;;;;;;5096991;28;20381;-75
2024/01/22 00:32:57;;;;;;;8.75;6.20;;;4.30;64.40;;;;;;5078452;28;20020;-75
2024/01/22 00:35:23;;;;;;;8.65;6.15;;;4.30;64.40;;;;;;5078381;28;20054;-76
2024/01/22 00:37:48;;;;;;;9.00;6.43;;;4.30;64.40;;;;;;5096670;28;20024;-75
2024/01/22 00:40:14;;;;;;;8.68;6.00;;;4.30;64.40;;;;;;5096786;28;20020;-76
2024/01/22 00:42:42;;;;;;;8.63;6.30;;;4.30;64.40;;;;;;5078326;28;20411;-74
2024/01/22 00:45:08;;;;;;;8.02;5.88;;;4.40;64.40;;;;;;5078631;28;20035;-75
2024/01/22 00:47:34;;;;;;;9.50;6.30;;;4.40;64.40;;;;;;5096798;28;20024;-76
2024/01/22 00:49:59;;;;;;;8.73;6.55;;;4.40;64.40;;;;;;5096362;28;20099;-76
2024/01/22 00:52:25;;;;;;;9.45;6.57;;;4.40;64.40;;;;;;5096679;28;20150;-74
2024/01/22 00:54:51;;;;;;;8.10;5.93;;;4.40;64.40;;;;;;5096522;28;20031;-76
2024/01/22 00:57:19;;;;;;;11.02;7.07;;;4.40;64.30;;;;;;5097026;28;20020;-74
2024/01/22 00:59:44;;;;;;;9.07;6.07;;;4.40;64.40;;;;;;5096806;28;20019;-75
2024/01/22 01:02:10;;;;;;;9.88;6.57;;;4.40;64.40;;;;;;5079636;28;20353;-75
2024/01/22 01:04:36;;;;;;;9.57;6.53;;;4.30;64.30;;;;;;5078852;28;20468;-76
2024/01/22 01:07:01;;;;;;;9.80;6.57;;;4.40;64.40;;;;;;5079500;28;20438;-75
2024/01/22 01:09:27;;;;;;;7.68;5.43;;;4.40;64.30;;;;;;5096408;28;20446;-74
2024/01/22 01:11:53;;;;;;;9.57;6.47;;;4.30;64.20;;;;;;5096096;28;20024;-74
2024/01/22 01:14:18;;;;;;;9.90;7.03;;;4.40;64.30;;;;;;5095415;28;20456;-75
2024/01/22 01:16:44;;;;;;;11.40;7.75;;;4.40;64.30;;;;;;5095787;28;20031;-75
2024/01/22 01:19:10;;;;;;;9.35;6.45;;;4.40;64.20;;;;;;5096441;28;20051;-76
2024/01/22 01:21:38;;;;;;;11.93;7.15;;;4.40;64.20;;;;;;5096072;28;20032;-75
2024/01/22 01:24:04;;;;;;;9.25;6.05;;;4.40;64.20;;;;;;5077362;28;20032;-75
2024/01/22 01:26:30;;;;;;;10.20;6.40;;;4.40;64.20;;;;;;5077115;28;20020;-74
2024/01/22 01:28:55;;;;;;;10.77;6.60;;;4.40;64.10;;;;;;5095294;28;20020;-75
2024/01/22 01:31:21;;;;;;;9.95;6.55;;;4.40;64.10;;;;;;5095450;28;20027;-75
2024/01/22 01:33:47;;;;;;;10.43;6.68;;;4.30;64.10;;;;;;5094576;28;20031;-74
2024/01/22 01:36:13;;;;;;;8.35;5.93;;;4.30;64.10;;;;;;5077367;28;20016;-74
2024/01/22 01:38:38;;;;;;;7.88;6.32;;;4.30;64.10;;;;;;5095091;28;20020;-75
2024/01/22 01:41:04;;;;;;;10.70;7.38;;;4.40;64.10;;;;;;5077064;28;20034;-75
2024/01/22 01:43:31;;;;;;;12.13;7.95;;;4.40;64.10;;;;;;5096911;28;20511;-74
2024/01/22 01:45:56;;;;;;;10.52;7.25;;;4.40;64.10;;;;;;5078175;28;20027;-77
2024/01/22 01:48:22;;;;;;;10.77;7.68;;;4.30;64.00;;;;;;5095515;28;20350;-75
2024/01/22 01:50:48;;;;;;;11.32;6.40;;;4.30;64.10;;;;;;5095069;28;20465;-75
2024/01/22 01:53:14;;;;;;;9.80;6.90;;;4.30;64.10;;;;;;5094955;28;20048;-75
2024/01/22 01:55:41;;;;;;;9.43;6.68;;;4.30;64.00;;;;;;5094687;28;20482;-75
2024/01/22 01:58:07;;;;;;;9.18;6.47;;;4.30;64.10;;;;;;5076859;28;20016;-76
2024/01/22 02:00:33;;;;;;;7.05;5.85;;;4.30;64.00;;;;;;5094628;28;20446;-75
2024/01/22 02:02:58;;;;;;;8.93;6.63;;;4.30;64.10;;;;;;5076770;28;20043;-75
2024/01/22 02:05:24;;;;;;;10.32;6.50;;;4.30;64.00;;;;;;5094571;28;20020;-75
2024/01/22 02:07:50;;;;;;;9.57;6.03;;;4.30;64.00;;;;;;5094915;28;20020;-75
2024/01/22 02:10:16;;;;;;;9.07;6.97;;;4.40;64.00;;;;;;5094784;28;20027;-76
2024/01/22 02:12:42;;;;;;;8.90;6.30;;;4.30;64.00;;;;;;5095008;28;20033;-76
2024/01/22 02:15:08;;;;;;;10.95;7.15;;;4.30;64.00;;;;;;5094821;28;20434;-75
2024/01/22 02:17:34;;;;;;;9.45;7.15;;;4.40;64.00;;;;;;5076521;28;20377;-76
2024/01/22 02:19:59;;;;;;;8.05;6.53;;;4.30;63.90;;;;;;5076311;28;20024;-76
2024/01/22 02:22:25;;;;;;;10.07;7.30;;;4.30;64.00;;;;;;5094501;28;20046;-76
2024/01/22 02:24:51;;;;;;;10.55;6.90;;;4.30;64.60;;;;;;5076390;28;20024;-75
2024/01/22 02:27:17;;;;;;;10.93;7.38;;;4.30;64.00;;;;;;5094365;28;20020;-76
2024/01/22 02:29:43;;;;;;;8.75;6.93;;;4.30;64.00;;;;;;5076500;28;20020;-75
2024/01/22 02:32:09;;;;;;;9.27;6.93;;;4.30;64.00;;;;;;5094464;28;20097;-76
2024/01/22 02:34:34;;;;;;;10.15;6.93;;;4.20;64.00;;;;;;5076217;28;20052;-75
2024/01/22 02:37:00;;;;;;;7.32;5.95;;;4.20;64.00;;;;;;5094292;28;20457;-75
2024/01/22 02:39:26;;;;;;;11.27;7.40;;;4.20;64.00;;;;;;5094740;28;20016;-75
2024/01/22 02:41:51;;;;;;;10.70;7.40;;;4.20;64.00;;;;;;5094104;28;20351;-75
2024/01/22 02:44:17;;;;;;;10.18;7.20;;;4.20;64.10;;;;;;5095105;28;20462;-75
2024/01/22 02:46:43;;;;;;;10.82;7.50;;;4.20;64.00;;;;;;5076852;28;20020;-75
2024/01/22 02:49:11;;;;;;;10.60;6.85;;;4.20;64.00;;;;;;5095150;28;20031;-75
2024/01/22 02:51:37;;;;;;;10.20;7.22;;;4.20;64.10;;;;;;5094979;28;20154;-75
2024/01/22 02:54:04;;;;;;;10.52;6.40;;;4.10;64.00;;;;;;5095198;28;20478;-75
2024/01/22 02:59:51;;;;;;;10.02;7.63;;;4.10;64.00;;;;;;5094228;28;20059;-75
2024/01/22 03:02:17;;;;;;;10.05;7.00;;;4.10;64.00;;;;;;5094317;28;20056;-75
2024/01/22 03:04:43;;;;;;;10.75;7.07;;;4.10;64.00;;;;;;5075994;28;20027;-76
2024/01/22 03:07:09;;;;;;;7.85;6.20;;;4.00;64.00;;;;;;5094565;28;20028;-75
2024/01/22 03:09:35;;;;;;;8.73;6.07;;;4.00;64.00;;;;;;5076699;28;20384;-76
2024/01/22 03:12:01;;;;;;;9.52;6.95;;;4.00;64.00;;;;;;5094029;28;20032;-76
2024/01/22 03:14:27;;;;;;;8.52;6.10;;;4.00;64.00;;;;;;5075828;28;20024;-75
2024/01/22 03:16:53;;;;;;;8.15;6.28;;;4.00;64.00;;;;;;5093931;28;20020;-75
2024/01/22 03:19:18;;;;;;;8.70;6.22;;;4.00;64.00;;;;;;5094256;28;20063;-76
2024/01/22 03:21:44;;;;;;;7.90;6.10;;;4.00;64.00;;;;;;5093638;28;20032;-76
2024/01/22 03:24:09;;;;;;;7.78;6.00;;;4.00;64.00;;;;;;5094381;28;20534;-76
2024/01/22 03:26:35;;;;;;;10.10;6.60;;;4.00;64.00;;;;;;5093850;28;20024;-75
2024/01/22 03:29:01;;;;;;;8.60;6.75;;;4.00;64.00;;;;;;5076069;28;20029;-75
2024/01/22 03:31:29;;;;;;;9.07;6.45;;;4.00;64.00;;;;;;5093915;28;20099;-76
2024/01/22 03:33:56;;;;;;;10.48;6.53;;;4.00;64.00;;;;;;5093832;28;20396;-75
2024/01/22 03:36:22;;;;;;;8.55;6.43;;;3.90;63.90;;;;;;5076059;28;20442;-75
2024/01/22 03:38:49;;;;;;;8.10;5.80;;;3.90;63.90;;;;;;5093895;28;20023;-75
2024/01/22 03:41:15;;;;;;;8.90;6.38;;;3.90;63.90;;;;;;5075551;28;20472;-76
2024/01/22 03:43:42;;;;;;;7.82;6.15;;;3.90;63.90;;;;;;5075586;28;20024;-78
2024/01/22 03:46:09;;;;;;;8.88;5.95;;;3.90;63.90;;;;;;5073983;28;20032;-75
2024/01/22 03:48:34;;;;;;;8.98;6.43;;;3.90;63.90;;;;;;5075951;28;20020;-75
2024/01/22 03:51:00;;;;;;;9.32;6.75;;;3.90;63.90;;;;;;5075613;28;20491;-75
2024/01/22 03:53:26;;;;;;;8.95;6.68;;;3.90;63.90;;;;;;5093257;28;20135;-75
2024/01/22 03:55:51;;;;;;;8.18;6.50;;;3.90;63.90;;;;;;5076277;28;20031;-75
2024/01/22 03:58:17;;;;;;;8.98;6.70;;;3.90;63.90;;;;;;5098016;28;20111;-75
2024/01/22 04:00:43;;;;;;;7.65;5.95;;;3.90;63.90;;;;;;5101353;28;20051;-76
2024/01/22 04:03:08;;;;;;;9.15;6.57;;;3.90;63.80;;;;;;5078988;28;20035;-76
2024/01/22 04:05:35;;;;;;;8.23;6.25;;;3.90;63.90;;;;;;5097196;28;20046;-76
2024/01/22 04:08:00;;;;;;;7.40;6.05;;;3.90;63.90;;;;;;5063252;28;20027;-76
2024/01/22 04:10:26;;;;;;;8.32;6.22;;;3.90;63.90;;;;;;5096858;28;20020;-76
2024/01/22 04:12:55;;;;;;;7.93;6.30;;;3.90;63.90;;;;;;5097018;28;20024;-75
2024/01/22 04:15:20;;;;;;;8.20;6.50;;;3.90;63.90;;;;;;5097303;28;20051;-77
2024/01/22 04:17:46;;;;;;;8.55;6.60;;;3.90;63.90;;;;;;5078712;28;20075;-75
2024/01/22 04:20:12;;;;;;;8.80;6.50;;;3.90;63.90;;;;;;5097314;28;20458;-75
2024/01/22 04:22:38;;;;;;;9.25;7.20;;;3.90;63.80;;;;;;5096784;28;20071;-76
2024/01/22 04:25:04;;;;;;;9.15;6.53;;;3.90;63.80;;;;;;5096540;28;20418;-75
2024/01/22 04:27:29;;;;;;;11.77;7.47;;;3.90;63.80;;;;;;5079570;28;20461;-79
2024/01/22 04:29:56;;;;;;;11.70;8.25;;;3.90;63.80;;;;;;5097991;28;20087;-76
2024/01/22 04:32:22;;;;;;;11.70;8.90;;;3.80;63.70;;;;;;5098051;28;20055;-76
2024/01/22 04:34:47;;;;;;;12.85;10.50;;;3.80;63.80;;;;;;5097847;28;20024;-75
2024/01/22 04:37:14;;;;;;;13.38;9.88;;;3.80;63.80;;;;;;5079709;28;20020;-75
2024/01/22 04:39:40;;;;;;;13.13;9.80;;;3.80;63.80;;;;;;5097056;28;20031;-75
2024/01/22 04:42:06;;;;;;;13.93;10.18;;;3.80;63.80;;;;;;5079454;28;20076;-76
2024/01/22 04:44:32;;;;;;;14.05;10.27;;;3.90;63.80;;;;;;5078412;28;20502;-76
2024/01/22 04:46:58;;;;;;;13.63;9.38;;;3.90;63.70;;;;;;5096511;28;20378;-76
2024/01/22 04:49:24;;;;;;;12.55;9.25;;;3.90;63.70;;;;;;5078302;28;20055;-75
2024/01/22 04:51:50;;;;;;;11.77;9.25;;;3.90;63.70;;;;;;5095939;28;20031;-75
2024/01/22 04:54:16;;;;;;;13.35;9.00;;;3.80;63.70;;;;;;5078894;28;20020;-74
2024/01/22 04:56:46;;;;;;;12.57;9.15;;;3.80;63.70;;;;;;5078942;28;20346;-75
2024/01/22 04:59:12;;;;;;;12.98;8.95;;;3.80;63.70;;;;;;5096621;28;20358;-76
2024/01/22 05:01:38;;;;;;;14.52;9.80;;;3.80;63.70;;;;;;5095795;28;20047;-74
2024/01/22 05:04:04;;;;;;;13.65;9.38;;;3.80;63.70;;;;;;5096361;28;20060;-75
2024/01/22 05:06:30;;;;;;;14.18;9.60;;;3.80;63.70;;;;;;5095954;28;20098;-75
2024/01/22 05:08:56;;;;;;;12.50;9.02;;;3.80;63.70;;;;;;5096302;28;20052;-75
2024/01/22 05:11:23;;;;;;;12.57;8.55;;;3.80;63.70;;;;;;5077811;28;20022;-76
2024/01/22 05:13:52;;;;;;;14.00;9.48;;;3.80;63.70;;;;;;5077990;28;20020;-75
2024/01/22 05:16:19;;;;;;;13.63;9.82;;;3.80;63.70;;;;;;5095942;28;20034;-75
2024/01/22 05:18:46;;;;;;;13.90;9.45;;;3.80;63.70;;;;;;5077516;28;20036;-76
2024/01/22 05:21:12;;;;;;;14.57;9.35;;;3.80;63.70;;;;;;5077822;28;20035;-78
2024/01/22 05:23:39;;;;;;;15.65;9.65;;;3.80;63.70;;;;;;5077726;28;20032;-77
2024/01/22 05:26:05;;;;;;;12.93;8.77;;;3.70;63.60;;;;;;5095412;28;20024;-77
2024/01/22 05:28:31;;;;;;;10.85;7.90;;;3.80;63.70;;;;;;5077889;28;20020;-78
2024/01/22 05:30:57;;;;;;;13.02;8.63;;;3.70;63.70;;;;;;5095589;28;20024;-78
2024/01/22 05:33:23;;;;;;;11.80;7.90;;;3.70;63.70;;;;;;5077401;28;20021;-79
2024/01/22 05:39:11;;;;;;;11.45;7.78;;;3.80;65.30;;;;;;5095837;28;20023;-78
2024/01/22 05:41:36;;;;;;;10.25;7.22;;;3.90;65.70;;;;;;5095506;28;20428;-78
2024/01/22 05:44:02;;;;;;;11.65;7.43;;;3.90;65.70;;;;;;5077359;28;20104;-79
2024/01/22 05:46:28;;;;;;;9.75;6.93;;;4.00;65.90;;;;;;5095407;28;20446;-80
2024/01/22 05:48:53;;;;;;;10.63;7.40;;;4.10;66.00;;;;;;5094967;28;20024;-78
2024/01/22 05:51:20;;;;;;;11.63;7.07;;;4.20;66.10;;;;;;5077788;28;20023;-76
2024/01/22 05:53:47;;;;;;;10.02;6.85;;;4.20;66.00;;;;;;5076944;28;20044;-78
2024/01/22 05:56:25;;;;;;;10.25;7.30;;;4.30;66.00;;;;;;5077655;28;20020;-75
2024/01/22 05:58:54;;;;;;;10.93;7.25;;;4.40;66.00;;;;;;5076718;28;20023;-83
2024/01/22 06:01:21;;;;;;;10.10;7.25;;;4.40;65.90;;;;;;5076522;28;20024;-75
2024/01/22 06:07:36;;;;;;;8.98;6.82;;;4.50;65.90;;;;;;5094516;28;20559;-75
2024/01/22 06:10:02;;;;;;;10.00;6.55;;;4.60;65.70;;;;;;5076592;28;20020;-72
2024/01/22 06:12:27;;;;;;;9.45;7.03;;;4.60;65.70;;;;;;5094714;28;20020;-73
2024/01/22 06:14:53;;;;;;;9.98;7.13;;;4.60;65.70;;;;;;5076830;28;20432;-72
2024/01/22 06:17:19;;;;;;;8.55;7.03;;;4.60;65.60;;;;;;5076813;28;20020;-73
2024/01/22 06:19:44;;;;;;;9.07;7.10;;;4.70;65.60;;;;;;5094199;28;20488;-73
2024/01/22 06:22:12;;;;;;;10.05;7.20;;;4.70;65.50;;;;;;5095322;28;20077;-73
2024/01/22 06:24:38;;;;;;;10.20;7.43;;;4.80;65.50;;;;;;5077185;28;20016;-73
2024/01/22 06:27:04;;;;;;;9.00;7.07;;;4.80;65.40;;;;;;5076794;28;20390;-73
2024/01/22 06:29:30;;;;;;;9.95;7.38;;;4.90;65.40;;;;;;5076557;28;20105;-74
2024/01/22 06:31:56;;;;;;;10.20;7.22;;;4.90;65.40;;;;;;5076312;28;20113;-73
2024/01/22 06:34:22;;;;;;;11.07;7.80;;;4.90;65.30;;;;;;5094499;28;20027;-72
2024/01/22 06:36:47;;;;;;;10.45;6.90;;;4.90;65.30;;;;;;5076929;28;20020;-73
2024/01/22 06:39:13;;;;;;;9.73;7.38;;;5.00;65.30;;;;;;5094388;28;20027;-73
2024/01/22 06:41:38;;;;;;;10.82;7.15;;;5.00;65.20;;;;;;5076376;28;20446;-73
2024/01/22 06:44:05;;;;;;;9.13;6.95;;;5.00;65.20;;;;;;5093975;28;20040;-74
2024/01/22 06:46:30;;;;;;;11.52;8.10;;;5.10;65.20;;;;;;5094269;28;20023;-73
2024/01/22 06:48:56;;;;;;;10.13;7.90;;;5.10;65.10;;;;;;5093973;28;20024;-75
2024/01/22 06:51:24;;;;;;;9.80;7.68;;;5.10;65.10;;;;;;5076117;28;20057;-73
2024/01/22 06:53:50;;;;;;;9.98;6.88;;;5.10;65.00;;;;;;5075662;28;20470;-73
2024/01/22 06:56:16;;;;;;;9.77;7.70;;;5.20;65.00;;;;;;5076811;28;20050;-75
2024/01/22 06:58:42;;;;;;;9.55;7.38;;;5.20;65.00;;;;;;5094531;28;20031;-74
2024/01/22 07:01:07;;;;;;;10.15;7.60;;;5.20;64.90;;;;;;5093857;28;20099;-73
2024/01/22 07:03:35;;;;;;;10.30;7.47;;;5.20;64.90;;;;;;5093586;28;20060;-74
2024/01/22 07:06:01;;;;;;;10.15;7.38;;;5.30;64.90;;;;;;5094042;28;20020;-74
2024/01/22 07:08:26;;;;;;;9.43;6.72;;;5.30;64.80;;;;;;5078316;28;20026;-73
2024/01/22 07:10:52;;;;;;;11.38;8.07;;;5.30;64.80;;;;;;5076418;28;20362;-73
2024/01/22 07:13:18;;;;;;;10.48;8.00;;;5.40;64.80;;;;;;5075698;28;20171;-72
2024/01/22 07:15:43;;;;;;;10.98;7.80;;;5.40;64.70;;;;;;5076838;28;20024;-73
2024/01/22 07:18:09;;;;;;;8.65;6.57;;;5.40;64.70;;;;;;5094701;28;20028;-71
2024/01/22 07:20:35;;;;;;;10.40;7.50;;;5.50;64.70;;;;;;5095188;28;20018;-74
2024/01/22 07:23:01;;;;;;;10.05;7.55;;;5.50;64.60;;;;;;5093921;28;20036;-73
2024/01/22 07:28:48;;;;;;;9.50;7.22;;;5.60;64.60;;;;;;5093694;28;20051;-74
2024/01/22 07:31:14;;;;;;;10.20;7.90;;;5.60;64.50;;;;;;5095238;28;20462;-75
2024/01/22 07:33:40;;;;;;;9.98;7.18;;;5.70;64.40;;;;;;5097920;28;20102;-74
2024/01/22 07:36:06;;;;;;;9.25;7.25;;;5.70;64.30;;;;;;5079560;28;20050;-73
2024/01/22 07:38:31;;;;;;;8.68;7.10;;;5.80;64.30;;;;;;5079880;28;20024;-73
2024/01/22 07:40:57;;;;;;;8.45;6.95;;;5.80;64.30;;;;;;5097661;28;20024;-74
2024/01/22 07:43:22;;;;;;;9.18;6.97;;;5.80;64.30;;;;;;5097209;28;20028;-73
2024/01/22 07:45:48;;;;;;;9.88;7.97;;;5.80;64.20;;;;;;5097553;28;20016;-74
2024/01/22 07:48:14;;;;;;;9.68;7.93;;;5.90;64.20;;;;;;5097413;28;20115;-74
2024/01/22 07:50:41;;;;;;;8.65;6.97;;;5.90;64.10;;;;;;5079727;28;20435;-74
2024/01/22 07:53:07;;;;;;;10.57;7.45;;;6.00;64.10;;;;;;5113580;28;20058;-73
2024/01/22 07:55:33;;;;;;;9.57;7.72;;;6.00;64.10;;;;;;5079579;28;20024;-72
2024/01/22 07:57:59;;;;;;;10.18;7.25;;;6.10;64.10;;;;;;5097763;28;20024;-74
2024/01/22 08:00:26;;;;;;;9.48;7.45;;;6.10;64.00;;;;;;5097912;28;20058;-74
2024/01/22 08:02:52;;;;;;;8.85;6.93;;;6.10;63.90;;;;;;5078896;28;20024;-73
2024/01/22 08:05:17;;;;;;;9.93;6.97;;;6.20;63.90;;;;;;5097941;28;20077;-75
2024/01/22 08:07:43;;;;;;;9.57;7.15;;;6.20;63.90;;;;;;5079133;28;20016;-74
2024/01/22 08:10:10;;;;;;;8.70;7.00;;;6.20;63.80;;;;;;5079447;28;20354;-74
2024/01/22 08:12:35;;;;;;;10.10;7.35;;;6.20;63.70;;;;;;5096706;28;20451;-74
2024/01/22 08:15:01;;;;;;;9.98;8.27;;;6.30;63.70;;;;;;5096967;28;20103;-75
2024/01/22 08:17:27;;;;;;;10.07;7.78;;;6.30;63.70;;;;;;5096781;28;20023;-73
2024/01/22 08:19:52;;;;;;;10.27;7.15;;;6.40;63.70;;;;;;5096921;28;20107;-74
2024/01/22 08:25:40;;;;;;;9.30;6.63;;;6.40;63.50;;;;;;5096844;28;20042;-75
2024/01/22 08:31:28;;;;;;;9.27;7.05;;;6.50;63.40;;;;;;5096809;28;20019;-78
2024/01/22 08:33:54;;;;;;;8.70;6.55;;;6.50;63.40;;;;;;5113340;28;20024;-76
2024/01/22 08:36:20;;;;;;;9.32;6.97;;;6.50;63.40;;;;;;5097073;28;20110;-75
2024/01/22 08:38:46;;;;;;;9.98;7.00;;;6.50;63.30;;;;;;5078332;28;20024;-77
2024/01/22 08:41:11;;;;;;;8.57;6.28;;;6.50;63.30;;;;;;5096701;28;20016;-76
2024/01/22 08:43:37;;;;;;;8.82;7.10;;;6.50;63.30;;;;;;5096367;28;20054;-75
2024/01/22 08:46:03;;;;;;;8.25;6.35;;;6.50;63.30;;;;;;5078434;28;20331;-76
2024/01/22 08:48:30;;;;;;;8.23;6.40;;;6.60;63.30;;;;;;5096927;28;20055;-76
2024/01/22 08:50:59;;;;;;;9.20;6.80;;;6.60;63.30;;;;;;5096072;28;20507;-77
2024/01/22 08:53:25;;;;;;;9.73;6.97;;;6.60;63.30;;;;;;5096685;28;20047;-75
2024/01/22 08:55:51;;;;;;;11.10;7.43;;;6.60;63.30;;;;;;5096998;28;20410;-75
2024/01/22 08:58:17;;;;;;;9.57;7.57;;;6.60;63.20;;;;;;5096170;28;20434;-77
2024/01/22 09:00:43;;;;;;;8.45;6.57;;;6.60;63.20;;;;;;5096266;28;20012;-76
2024/01/22 09:03:08;;;;;;;9.43;7.10;;;6.60;63.20;;;;;;5095794;28;20416;-76
2024/01/22 09:05:34;;;;;;;8.73;6.85;;;6.60;63.20;;;;;;5096368;28;20024;-76
2024/01/22 09:08:00;;;;;;;10.25;7.40;;;6.60;63.20;;;;;;5095722;28;20100;-76
2024/01/22 09:10:26;;;;;;;10.00;7.40;;;6.70;63.20;;;;;;5077776;28;20023;-77
2024/01/22 09:12:53;;;;;;;8.85;6.30;;;6.70;63.20;;;;;;5095885;28;20039;-77
2024/01/22 09:15:18;;;;;;;9.05;6.82;;;6.70;63.10;;;;;;5095824;28;20084;-75
2024/01/22 09:17:45;;;;;;;8.98;6.82;;;6.70;63.10;;;;;;5096252;28;20032;-76
2024/01/22 09:20:11;;;;;;;9.27;6.95;;;6.70;63.10;;;;;;5095971;28;20040;-76
2024/01/22 09:22:37;;;;;;;7.50;6.25;;;6.80;63.10;;;;;;5060961;28;20483;-77
2024/01/22 09:25:04;;;;;;;8.30;6.30;;;6.80;63.10;;;;;;5095346;28;20047;-77
2024/01/22 09:27:30;;;;;;;7.15;6.32;;;6.80;63.00;;;;;;5095412;28;20027;-76
2024/01/22 09:29:56;;;;;;;9.18;6.75;;;6.80;63.00;;;;;;5095845;28;20028;-77
2024/01/22 09:32:22;;;;;;;9.45;6.88;;;6.80;63.00;;;;;;5095849;28;20024;-76
2024/01/22 09:34:47;;;;;;;9.57;6.68;;;6.80;63.00;;;;;;5095143;28;20015;-76
2024/01/22 09:37:14;;;;;;;9.20;6.80;;;6.80;63.00;;;;;;5095730;28;20434;-76
2024/01/22 09:39:40;;;;;;;8.18;6.18;;;6.90;63.00;;;;;;5078193;28;20027;-78
2024/01/22 09:42:06;;;;;;;9.75;6.55;;;6.90;62.90;;;;;;5096912;28;20019;-77
2024/01/22 09:44:34;;;;;;;8.25;6.18;;;6.90;62.90;;;;;;5078470;28;20064;-76
2024/01/22 09:47:02;;;;;;;7.82;6.22;;;6.90;62.80;;;;;;5096456;28;20020;-76
2024/01/22 09:49:28;;;;;;;8.27;6.40;;;6.90;62.80;;;;;;5097042;28;20012;-77
2024/01/22 09:51:54;;;;;;;8.93;6.50;;;6.90;62.80;;;;;;5095747;28;20031;-77
2024/01/22 09:54:23;;;;;;;8.00;6.63;;;6.90;62.80;;;;;;5094851;28;20020;-77
2024/01/22 09:56:53;;;;;;;8.52;6.68;;;7.00;62.80;;;;;;5110860;28;20036;-76
2024/01/22 09:59:20;;;;;;;9.20;6.78;;;7.00;62.80;;;;;;5095525;28;20100;-76
2024/01/22 10:01:48;;;;;;;8.70;6.47;;;7.00;62.80;;;;;;5076946;28;20020;-76
2024/01/22 10:04:15;;;;;;;7.68;5.95;;;7.00;62.80;;;;;;5094871;28;20078;-76
2024/01/22 10:06:41;;;;;;;8.15;5.93;;;7.00;62.70;;;;;;5095347;28;20084;-76
2024/01/22 10:09:07;;;;;;;8.93;6.13;;;7.10;62.70;;;;;;5094716;28;20035;-76
2024/01/22 10:11:33;;;;;;;8.60;6.20;;;7.10;62.70;;;;;;5077394;28;20020;-77
2024/01/22 10:13:59;;;;;;;7.43;5.93;;;7.10;62.70;;;;;;5076615;28;20028;-76
2024/01/22 10:16:26;;;;;;;8.30;6.63;;;7.10;62.60;;;;;;5094469;28;20074;-76
2024/01/22 10:18:57;;;;;;;8.20;6.00;;;7.10;62.60;;;;;;5094617;28;20035;-76
2024/01/22 10:21:23;;;;;;;7.85;6.30;;;7.20;62.60;;;;;;5094392;28;20024;-76
2024/01/22 10:24:03;;;;;;;7.85;6.03;;;7.20;62.50;;;;;;5110110;28;20130;-76
2024/01/22 10:26:30;;;;;;;7.43;5.78;;;7.20;62.50;;;;;;5095346;28;20020;-76
2024/01/22 10:29:22;;;;;;;7.95;5.70;;;7.20;62.50;;;;;;5094580;28;20130;-77
2024/01/22 10:31:57;;;;;;;8.55;6.35;;;7.20;62.50;;;;;;5076908;28;20077;-77
2024/01/22 10:34:30;;;;;;;;;;;7.20;62.40;;;;;;5095005;28;20024;-76
2024/01/22 10:37:12;;;;;;;7.53;5.70;;;7.20;62.20;;;;;;5096652;28;19907;-76
2024/01/22 10:39:42;;;;;;;6.32;5.40;;;7.30;62.40;;;;;;5078151;28;20394;-77
2024/01/22 10:42:16;;;;;;;6.75;5.68;;;7.30;62.30;;;;;;5094714;28;20145;-77
2024/01/22 10:44:46;;;;;;;8.68;6.20;;;7.30;62.30;;;;;;5075891;28;20039;-76
2024/01/22 10:47:16;;;;;;;7.78;5.97;;;7.30;62.30;;;;;;5094350;28;20146;-77
2024/01/22 10:49:44;;;;;;;8.80;5.75;;;7.30;62.30;;;;;;5094570;28;20099;-76
2024/01/22 10:52:10;;;;;;;7.47;5.75;;;7.30;62.20;;;;;;5095288;28;20074;-76
2024/01/22 10:54:37;;;;;;;7.70;6.05;;;7.30;62.20;;;;;;5094107;28;20124;-76
2024/01/22 10:57:09;;;;;;;7.07;5.70;;;7.30;62.20;;;;;;5093896;28;20024;-76
2024/01/22 10:59:36;;;;;;;7.55;5.40;;;7.30;62.20;;;;;;5076764;28;20031;-76
2024/01/22 11:02:06;;;;;;;8.25;5.57;;;7.30;62.20;;;;;;5094101;28;20024;-76
2024/01/22 11:04:44;;;;;;;7.18;5.45;;;7.20;62.20;;;;;;5077581;28;20051;-77
2024/01/22 11:07:11;;;;;;;6.97;5.50;;;7.20;62.20;;;;;;5083699;28;20390;-78
2024/01/22 11:09:39;;;;;;;8.13;5.78;;;7.20;62.20;;;;;;5082656;28;20045;-77
2024/01/22 11:12:09;;;;;;;8.07;6.07;;;7.20;62.30;;;;;;5100925;28;20369;-78
2024/01/22 11:14:40;;;;;;;7.43;5.60;;;7.20;62.30;;;;;;5082414;28;20024;-77
2024/01/22 11:17:09;;;;;;;6.18;5.45;;;7.10;62.30;;;;;;5082627;28;20016;-76
2024/01/22 11:19:35;;;;;;;7.75;5.78;;;7.20;62.30;;;;;;5082631;28;20020;-76
2024/01/22 11:22:20;;;;;;;6.82;5.18;;;7.20;62.40;;;;;;5082860;28;20119;-78
2024/01/22 11:25:02;;;;;;;;;;;7.20;62.40;;;;;;5103898;28;20059;-76
2024/01/22 11:27:38;;;;;;;7.60;5.85;;;7.20;62.20;;;;;;5084709;28;19927;-77
2024/01/22 11:30:38;;;;;;;7.07;5.68;;;7.20;62.30;;;;;;5101418;28;20047;-76
2024/01/22 11:33:25;;;;;;;7.80;5.20;;;7.20;62.20;;;;;;5051213;28;20422;-76
2024/01/22 11:35:52;;;;;;;7.10;5.70;;;7.20;62.20;;;;;;5101527;28;20365;-77
2024/01/22 11:38:43;;;;;;;5.95;5.10;;;7.20;62.20;;;;;;5101481;28;20024;-77
2024/01/22 11:41:08;;;;;;;6.38;4.80;;;7.20;62.20;;;;;;5101582;28;20016;-74
2024/01/22 11:43:35;;;;;;;6.97;5.40;;;7.10;62.20;;;;;;5100227;28;20051;-77
2024/01/22 11:46:14;;;;;;;7.57;5.40;;;7.10;62.20;;;;;;5116386;28;20024;-79
2024/01/22 11:48:40;;;;;;;6.32;4.93;;;7.10;62.30;;;;;;5101395;28;20362;-76
2024/01/22 11:51:06;;;;;;;7.85;5.78;;;7.10;62.30;;;;;;5082887;28;20074;-77
2024/01/22 11:53:32;;;;;;;7.07;5.53;;;7.00;62.30;;;;;;5084276;28;20123;-76
2024/01/22 11:56:01;;;;;;;6.13;4.68;;;7.00;62.30;;;;;;5109795;28;20058;-78
2024/01/22 11:58:28;;;;;;;6.97;5.63;;;7.00;62.30;;;;;;5113515;28;20047;-78
2024/01/22 12:00:54;;;;;;;6.95;5.43;;;7.00;62.30;;;;;;5096520;28;20114;-79
2024/01/22 12:03:32;;;;;;;6.68;5.13;;;7.00;62.30;;;;;;5116580;28;20028;-82
2024/01/22 12:06:04;;;;;;;7.15;5.30;;;7.00;62.40;;;;;;5087936;28;20111;-84
2024/01/22 12:08:39;;;;;;;7.22;5.68;;;7.00;62.40;;;;;;5101382;28;20099;-79
2024/01/22 12:11:15;;;;;;;6.28;5.07;;;7.00;62.40;;;;;;5083202;28;20026;-76
2024/01/22 12:13:42;;;;;;;6.25;5.35;;;6.90;62.40;;;;;;5116157;28;20441;-73
2024/01/22 12:16:13;;;;;;;7.03;5.18;;;6.90;62.40;;;;;;5099170;28;20024;-82
2024/01/22 12:18:38;;;;;;;6.93;5.60;;;6.90;62.40;;;;;;5078870;28;20026;-72
2024/01/22 12:21:05;;;;;;;6.00;4.95;;;6.90;62.40;;;;;;5097183;28;20040;-75
2024/01/22 12:23:31;;;;;;;7.43;5.45;;;6.90;62.40;;;;;;5078440;28;20031;-73
2024/01/22 12:25:58;;;;;;;6.70;5.22;;;6.90;62.40;;;;;;5096828;28;20453;-76
2024/01/22 12:28:24;;;;;;;5.30;4.80;;;6.90;62.40;;;;;;5097010;28;20031;-79
2024/01/22 12:31:00;;;;;;;6.13;5.20;;;6.90;62.40;;;;;;5078565;28;20016;-81
2024/01/22 12:33:27;;;;;;;6.72;5.05;;;6.90;62.40;;;;;;5096694;28;20028;-79
2024/01/22 12:36:13;;;;;;;6.05;4.90;;;6.90;62.40;;;;;;5078967;28;20034;-84
2024/01/22 12:38:55;;;;;;;8.20;5.65;;;6.90;62.40;;;;;;5079090;28;20353;-75
2024/01/22 12:41:22;;;;;;;6.13;4.63;;;7.00;67.40;;;;;;5096929;28;20024;-81
2024/01/22 12:43:48;;;;;;;7.38;4.65;;;7.20;67.00;;;;;;5097133;28;20028;-78
2024/01/22 12:46:19;;;;;;;5.78;4.75;;;7.40;66.80;;;;;;5112917;28;20024;-83
2024/01/22 12:48:45;;;;;;;5.75;4.18;;;7.50;66.70;;;;;;5098062;28;20051;-87
2024/01/22 12:51:13;;;;;;;5.63;4.47;;;7.50;66.40;;;;;;5097144;28;20051;-82
2024/01/22 12:53:44;;;;;;;5.20;4.40;;;7.60;66.40;;;;;;5096505;28;20040;-84
2024/01/22 12:56:10;;;;;;;4.90;4.18;;;7.60;66.40;;;;;;5097318;28;20020;-87
2024/01/22 12:58:36;;;;;;;6.88;5.20;;;7.60;66.40;;;;;;5097064;28;20024;-83
2024/01/22 13:01:02;;;;;;;23.98;18.33;;;7.60;66.50;;;;;;5111937;28;20347;-77
2024/01/22 13:03:28;;;;;;;13.93;11.65;;;7.60;66.20;;;;;;5077826;28;20032;-81
2024/01/22 13:05:54;;;;;;;12.13;9.82;;;7.50;65.40;;;;;;5096428;28;20136;-78
2024/01/22 13:08:20;;;;;;;10.98;8.73;;;7.50;65.70;;;;;;5080173;28;20020;-79
2024/01/22 13:10:46;;;;;;;10.65;8.05;;;7.40;65.90;;;;;;5119006;28;20088;-86
2024/01/22 13:13:24;;;;;;;10.18;8.10;;;7.40;66.10;;;;;;5102967;28;20027;-81
2024/01/22 13:15:56;;;;;;;9.13;7.85;;;7.40;66.20;;;;;;5103978;28;20024;-84